Time;durP1;ratioP1;P1;durP2;ratioP2;P2;SDS_P1;SDS_P2;PMS_P1;PMS_P2;Temp;Humidity;BMP_temperature;BMP_pressure;BME280_temperature;BME280_humidity;BME280_pressure;Samples;Min_cycle;Max_cycle;Signal;HPM_P1;HPM_P2
2023/11/10 00:02:25;;;;;;;1.02;0.50;;;7.50;99.90;;;;;;6205377;23;20020;-79
2023/11/10 00:04:52;;;;;;;0.40;0.30;;;7.40;99.90;;;;;;6203911;23;20020;-79
2023/11/10 00:07:20;;;;;;;0.93;0.30;;;7.50;99.90;;;;;;6180473;23;20346;-79
2023/11/10 00:09:47;;;;;;;1.42;0.50;;;7.40;99.90;;;;;;6205518;23;20016;-79
2023/11/10 00:12:14;;;;;;;0.30;0.30;;;7.40;99.90;;;;;;6181125;23;20024;-79
2023/11/10 00:14:42;;;;;;;0.43;0.30;;;7.40;99.90;;;;;;6181066;23;20097;-79
2023/11/10 00:17:11;;;;;;;0.57;0.25;;;7.40;99.90;;;;;;6180685;23;20105;-79
2023/11/10 00:19:44;;;;;;;0.65;0.20;;;7.40;99.90;;;;;;6205340;23;20026;-79
2023/11/10 00:22:11;;;;;;;0.47;0.30;;;7.40;99.90;;;;;;6207763;23;20027;-79
2023/11/10 00:24:45;;;;;;;0.17;0.17;;;7.40;99.90;;;;;;6206238;23;20020;-78
2023/11/10 00:27:14;;;;;;;0.75;0.40;;;7.40;99.90;;;;;;6208772;23;20099;-79
2023/11/10 00:29:42;;;;;;;0.70;0.40;;;7.50;99.90;;;;;;6182151;23;20024;-80
2023/11/10 00:32:09;;;;;;;1.65;0.32;;;7.50;99.90;;;;;;6207227;23;20085;-80
2023/11/10 00:34:36;;;;;;;0.30;0.30;;;7.50;99.90;;;;;;6180467;23;20031;-79
2023/11/10 00:37:03;;;;;;;0.80;0.32;;;7.50;99.90;;;;;;6232362;23;20297;-79
2023/11/10 00:39:30;;;;;;;0.57;0.30;;;7.50;99.90;;;;;;6181733;23;20020;-79
2023/11/10 00:41:58;;;;;;;0.43;0.40;;;7.50;99.90;;;;;;6182970;23;20111;-80
2023/11/10 00:44:25;;;;;;;0.38;0.38;;;7.40;99.90;;;;;;6207474;23;20259;-80
2023/11/10 00:46:51;;;;;;;0.50;0.20;;;7.40;99.90;;;;;;6232420;23;20047;-79
2023/11/10 00:49:18;;;;;;;0.40;0.30;;;7.40;99.90;;;;;;6182267;23;20055;-79
2023/11/10 00:51:45;;;;;;;0.82;0.40;;;7.40;99.90;;;;;;6205856;23;20090;-79
2023/11/10 00:54:12;;;;;;;0.30;0.30;;;7.40;99.90;;;;;;6182106;23;20038;-79
2023/11/10 00:56:39;;;;;;;0.52;0.20;;;7.40;99.90;;;;;;6207440;23;20432;-79
2023/11/10 00:59:06;;;;;;;0.43;0.25;;;7.40;99.90;;;;;;6234096;23;20024;-79
2023/11/10 01:01:35;;;;;;;0.77;0.30;;;7.40;99.90;;;;;;6206100;23;20016;-79
2023/11/10 01:04:03;;;;;;;0.70;0.45;;;7.50;99.90;;;;;;6206802;23;20873;-79
2023/11/10 01:06:30;;;;;;;1.67;0.30;;;7.60;99.90;;;;;;6180288;23;20070;-79
2023/11/10 01:08:57;;;;;;;0.47;0.35;;;7.60;99.90;;;;;;6182049;23;20091;-79
2023/11/10 01:11:25;;;;;;;0.50;0.30;;;7.60;99.90;;;;;;6232472;23;20031;-79
2023/11/10 01:13:52;;;;;;;0.20;0.20;;;7.60;99.90;;;;;;6209135;23;20039;-79
2023/11/10 01:16:19;;;;;;;0.20;0.20;;;7.50;99.90;;;;;;6211128;23;20350;-79
2023/11/10 01:18:46;;;;;;;0.40;0.25;;;7.50;99.90;;;;;;6210653;23;20104;-79
2023/11/10 01:21:14;;;;;;;0.50;0.28;;;7.40;99.90;;;;;;6209510;23;20343;-78
2023/11/10 01:23:41;;;;;;;0.22;0.20;;;7.30;99.90;;;;;;6185902;23;20016;-78
2023/11/10 01:26:08;;;;;;;0.20;0.20;;;7.30;99.90;;;;;;6210259;23;20034;-79
2023/11/10 01:28:37;;;;;;;0.38;0.25;;;7.20;99.90;;;;;;6211024;23;20051;-79
2023/11/10 01:31:04;;;;;;;0.47;0.30;;;7.20;99.90;;;;;;6210740;23;20020;-79
2023/11/10 01:33:30;;;;;;;0.20;0.20;;;7.20;99.90;;;;;;6210686;23;20086;-78
2023/11/10 01:35:58;;;;;;;0.20;0.20;;;7.10;99.90;;;;;;6209246;23;20024;-78
2023/11/10 01:38:24;;;;;;;0.25;0.22;;;7.10;99.90;;;;;;6186378;23;20020;-78
2023/11/10 01:40:52;;;;;;;0.60;0.32;;;7.20;99.90;;;;;;6185879;23;20020;-78
2023/11/10 01:43:19;;;;;;;1.05;0.55;;;7.20;99.90;;;;;;6235675;23;20024;-78
2023/11/10 01:45:46;;;;;;;1.30;0.50;;;7.20;99.90;;;;;;6184914;23;20024;-78
2023/11/10 01:48:13;;;;;;;0.85;0.30;;;7.20;99.90;;;;;;6210805;23;20028;-78
2023/11/10 01:50:41;;;;;;;0.20;0.20;;;7.20;99.90;;;;;;6209408;23;20020;-79
2023/11/10 01:53:11;;;;;;;0.25;0.22;;;7.20;99.90;;;;;;6234750;23;20051;-79
2023/11/10 01:55:38;;;;;;;0.20;0.20;;;7.20;99.90;;;;;;6209919;23;20028;-78
2023/11/10 01:58:05;;;;;;;1.00;0.60;;;7.20;99.90;;;;;;6210786;23;20024;-78
2023/11/10 02:00:32;;;;;;;0.30;0.20;;;7.20;99.90;;;;;;6235225;23;20027;-79
2023/11/10 02:03:06;;;;;;;0.35;0.20;;;7.20;99.90;;;;;;6236191;23;20036;-79
2023/11/10 02:05:33;;;;;;;0.40;0.30;;;7.30;1.00;;;;;;6183708;23;20031;-79
2023/11/10 02:08:04;;;;;;;0.30;0.30;;;7.30;1.00;;;;;;6210571;23;20351;-79
2023/11/10 02:10:32;;;;;;;0.57;0.20;;;7.30;1.00;;;;;;6210862;23;20111;-79
2023/11/10 02:12:59;;;;;;;0.70;0.30;;;7.30;1.00;;;;;;6235408;23;20526;-79
2023/11/10 02:15:27;;;;;;;1.80;0.40;;;7.30;1.00;;;;;;6210025;23;20268;-79
2023/11/10 02:17:55;;;;;;;1.58;0.40;;;7.30;1.00;;;;;;6186314;23;20074;-79
2023/11/10 02:20:23;;;;;;;1.77;0.47;;;7.30;1.00;;;;;;6183725;23;20344;-79
2023/11/10 02:22:50;;;;;;;0.82;0.50;;;7.40;1.00;;;;;;6186142;23;20462;-79
2023/11/10 02:25:21;;;;;;;0.75;0.30;;;7.40;1.00;;;;;;6209566;23;20498;-79
2023/11/10 02:27:50;;;;;;;0.85;0.40;;;7.40;1.00;;;;;;6184489;23;20020;-79
2023/11/10 02:30:17;;;;;;;0.30;0.30;;;7.40;1.00;;;;;;6209790;23;20051;-79
2023/11/10 02:32:46;;;;;;;0.63;0.30;;;7.40;1.00;;;;;;6212077;23;20382;-79
2023/11/10 02:35:14;;;;;;;0.57;0.40;;;7.40;99.90;;;;;;6207033;23;20399;-79
2023/11/10 02:37:42;;;;;;;0.30;0.17;;;7.50;1.00;;;;;;6184067;23;20039;-79
2023/11/10 02:40:09;;;;;;;1.35;0.40;;;7.50;1.00;;;;;;6212059;23;20024;-79
2023/11/10 02:42:36;;;;;;;0.47;0.30;;;7.50;1.00;;;;;;6213237;23;20024;-79
2023/11/10 02:45:03;;;;;;;1.92;0.50;;;7.50;1.00;;;;;;6212397;23;20020;-78
2023/11/10 02:47:31;;;;;;;0.70;0.30;;;7.50;1.00;;;;;;6185622;23;20398;-79
2023/11/10 02:49:58;;;;;;;1.50;0.40;;;7.50;1.00;;;;;;6184447;23;20026;-79
2023/11/10 02:52:25;;;;;;;0.85;0.55;;;7.50;1.00;;;;;;6236016;23;20020;-79
2023/11/10 02:54:52;;;;;;;2.05;0.80;;;7.50;1.00;;;;;;6185353;23;20016;-79
2023/11/10 02:57:21;;;;;;;1.25;0.40;;;7.50;6.70;;;;;;6236631;23;20031;-79
2023/11/10 02:59:49;;;;;;;0.57;0.40;;;7.60;16.20;;;;;;6235793;23;20104;-79
2023/11/10 03:02:16;;;;;;;0.88;0.40;;;7.60;37.40;;;;;;6211660;23;20099;-79
2023/11/10 03:04:45;;;;;;;2.45;0.60;;;7.60;98.40;;;;;;6184607;23;20047;-79
2023/11/10 03:07:12;;;;;;;1.17;0.50;;;7.70;99.90;;;;;;6235871;23;20016;-79
2023/11/10 03:09:44;;;;;;;1.95;0.60;;;7.70;99.90;;;;;;6185405;23;20024;-78
2023/11/10 03:12:11;;;;;;;0.70;0.35;;;7.80;99.90;;;;;;6186712;23;20100;-79
2023/11/10 03:14:41;;;;;;;1.02;0.50;;;7.80;99.90;;;;;;6185994;23;20032;-80
2023/11/10 03:17:09;;;;;;;2.08;0.80;;;7.80;99.90;;;;;;6210536;23;20102;-78
2023/11/10 03:19:36;;;;;;;2.53;0.60;;;7.80;99.90;;;;;;6234334;23;20301;-79
2023/11/10 03:22:03;;;;;;;0.82;0.45;;;7.80;99.90;;;;;;6211437;23;20514;-79
2023/11/10 03:24:31;;;;;;;0.32;0.30;;;7.80;99.90;;;;;;6184951;23;20043;-79
2023/11/10 03:26:58;;;;;;;1.20;0.52;;;7.80;99.90;;;;;;6211106;23;20115;-78
2023/11/10 03:29:26;;;;;;;0.98;0.32;;;7.80;99.90;;;;;;6185323;23;20020;-78
2023/11/10 03:31:53;;;;;;;0.75;0.30;;;7.80;99.90;;;;;;6210834;23;20020;-78
2023/11/10 03:34:20;;;;;;;1.58;0.40;;;7.70;1.00;;;;;;6210660;23;20022;-78
2023/11/10 03:36:47;;;;;;;1.15;0.40;;;7.70;1.00;;;;;;6183623;23;20043;-78
2023/11/10 03:39:16;;;;;;;0.30;0.30;;;7.70;1.00;;;;;;6234919;23;20035;-78
2023/11/10 03:41:43;;;;;;;0.60;0.35;;;7.70;41.20;;;;;;6211007;23;20028;-79
2023/11/10 03:44:10;;;;;;;2.30;1.08;;;7.70;47.70;;;;;;6210420;23;20031;-79
2023/11/10 03:46:37;;;;;;;0.73;0.50;;;7.70;99.90;;;;;;6185833;23;20032;-79
2023/11/10 03:49:04;;;;;;;1.15;0.55;;;7.80;99.90;;;;;;6210655;23;20024;-79
2023/11/10 03:51:31;;;;;;;0.95;0.50;;;7.80;99.90;;;;;;6236148;23;20082;-79
2023/11/10 03:53:58;;;;;;;1.45;0.50;;;7.90;99.90;;;;;;6237184;23;20377;-79
2023/11/10 03:56:25;;;;;;;0.88;0.40;;;7.90;99.90;;;;;;6187704;23;20039;-78
2023/11/10 03:58:52;;;;;;;0.68;0.30;;;7.90;99.90;;;;;;6187958;23;20103;-78
2023/11/10 04:01:20;;;;;;;0.55;0.30;;;7.90;99.90;;;;;;6187726;23;20074;-79
2023/11/10 04:03:47;;;;;;;0.93;0.60;;;8.00;99.90;;;;;;6188374;23;20115;-78
2023/11/10 04:06:14;;;;;;;0.75;0.40;;;8.00;99.90;;;;;;6186491;23;20039;-78
2023/11/10 04:08:41;;;;;;;0.70;0.30;;;8.00;89.70;;;;;;6212627;23;20031;-79
2023/11/10 04:11:09;;;;;;;1.13;0.30;;;7.90;99.90;;;;;;6212541;23;20434;-79
2023/11/10 04:13:36;;;;;;;1.27;0.50;;;7.90;94.10;;;;;;6213596;23;20055;-78
2023/11/10 04:16:04;;;;;;;0.60;0.50;;;7.90;95.60;;;;;;6187725;23;20023;-78
2023/11/10 04:18:31;;;;;;;0.45;0.28;;;7.90;99.10;;;;;;6212349;23;20465;-78
2023/11/10 04:20:58;;;;;;;0.32;0.32;;;7.80;92.50;;;;;;6210992;23;20016;-79
2023/11/10 04:23:26;;;;;;;1.25;0.40;;;7.80;99.90;;;;;;6212299;23;20361;-79
2023/11/10 04:25:53;;;;;;;0.30;0.25;;;7.80;99.90;;;;;;6188026;23;20130;-78
2023/11/10 04:28:21;;;;;;;0.75;0.30;;;7.80;99.90;;;;;;6213052;23;20024;-79
2023/11/10 04:30:47;;;;;;;0.70;0.20;;;7.70;99.90;;;;;;6212003;23;20119;-79
2023/11/10 04:33:15;;;;;;;0.38;0.30;;;7.70;99.90;;;;;;6212933;23;20102;-79
2023/11/10 04:35:42;;;;;;;0.20;0.20;;;7.70;99.90;;;;;;6186238;23;20039;-79
2023/11/10 04:38:10;;;;;;;1.50;0.40;;;7.70;99.90;;;;;;6212915;23;20415;-78
2023/11/10 04:40:37;;;;;;;0.10;0.10;;;7.70;99.90;;;;;;6212439;23;20488;-79
2023/11/10 04:43:05;;;;;;;0.38;0.20;;;7.70;99.90;;;;;;6212404;23;20524;-79
2023/11/10 04:45:33;;;;;;;1.05;0.30;;;7.70;99.90;;;;;;6212731;23;20328;-78
2023/11/10 04:48:02;;;;;;;0.20;0.20;;;7.70;99.90;;;;;;6187691;23;20099;-79
2023/11/10 04:50:29;;;;;;;0.40;0.20;;;7.70;99.90;;;;;;6211226;23;20020;-79
2023/11/10 04:52:56;;;;;;;0.50;0.20;;;7.70;99.90;;;;;;6187099;23;20031;-79
2023/11/10 04:55:23;;;;;;;0.65;0.30;;;7.70;99.90;;;;;;6212382;23;20043;-79
2023/11/10 04:57:50;;;;;;;0.30;0.20;;;7.70;99.90;;;;;;6213066;23;20066;-79
2023/11/10 05:00:19;;;;;;;0.30;0.20;;;7.70;1.00;;;;;;6210883;23;20016;-79
2023/11/10 05:02:47;;;;;;;0.28;0.28;;;7.70;1.00;;;;;;6212775;23;20118;-79
2023/11/10 05:05:14;;;;;;;0.38;0.30;;;7.70;1.00;;;;;;6210653;23;20027;-79
2023/11/10 05:07:42;;;;;;;0.85;0.40;;;7.70;1.00;;;;;;6187750;23;20020;-79
2023/11/10 05:10:09;;;;;;;0.47;0.20;;;7.70;99.90;;;;;;6211557;23;20024;-78
2023/11/10 05:12:37;;;;;;;0.25;0.20;;;7.80;99.90;;;;;;6236947;23;20115;-79
2023/11/10 05:15:07;;;;;;;0.75;0.30;;;7.90;12.50;;;;;;6237142;23;20016;-79
2023/11/10 05:17:35;;;;;;;0.70;0.50;;;7.90;99.90;;;;;;6212919;23;20082;-79
2023/11/10 05:20:03;;;;;;;0.45;0.28;;;8.00;99.90;;;;;;6209733;23;20023;-79
2023/11/10 05:22:32;;;;;;;0.25;0.25;;;8.00;1.00;;;;;;6187536;23;20392;-79
2023/11/10 05:25:02;;;;;;;1.58;0.60;;;8.10;1.00;;;;;;6211181;23;20047;-79
2023/11/10 05:27:30;;;;;;;0.45;0.35;;;8.20;99.90;;;;;;6212646;23;20028;-79
2023/11/10 05:29:57;;;;;;;1.23;0.40;;;8.20;99.90;;;;;;6212110;23;20024;-79
2023/11/10 05:32:26;;;;;;;0.73;0.40;;;8.30;99.90;;;;;;6187195;23;20070;-79
2023/11/10 05:34:54;;;;;;;0.70;0.40;;;8.30;99.90;;;;;;6209850;23;20016;-78
2023/11/10 05:37:21;;;;;;;0.40;0.30;;;8.40;99.90;;;;;;6212225;23;20052;-79
2023/11/10 05:39:51;;;;;;;0.20;0.20;;;8.40;99.90;;;;;;6236179;23;20032;-79
2023/11/10 05:42:18;;;;;;;0.40;0.30;;;8.50;99.90;;;;;;6212145;23;20020;-79
2023/11/10 05:44:45;;;;;;;0.30;0.20;;;8.50;99.90;;;;;;6186494;23;20060;-79
2023/11/10 05:47:12;;;;;;;0.28;0.28;;;8.50;99.90;;;;;;6186808;23;20040;-79
2023/11/10 05:49:41;;;;;;;0.57;0.40;;;8.60;99.90;;;;;;6206435;23;20028;-79
2023/11/10 05:52:09;;;;;;;0.40;0.40;;;8.60;99.90;;;;;;6210046;23;20132;-79
2023/11/10 05:54:36;;;;;;;0.30;0.30;;;8.60;99.90;;;;;;6207975;23;20031;-79
2023/11/10 05:57:03;;;;;;;0.10;0.10;;;8.60;99.90;;;;;;6234620;23;20394;-79
2023/11/10 05:59:30;;;;;;;0.88;0.63;;;8.70;99.90;;;;;;6183469;23;20074;-79
2023/11/10 06:01:57;;;;;;;0.63;0.17;;;8.70;99.90;;;;;;6184102;23;20062;-79
2023/11/10 06:04:24;;;;;;;0.20;0.20;;;8.70;99.90;;;;;;6230641;23;20012;-78
2023/11/10 06:07:01;;;;;;;0.10;0.10;;;8.60;99.90;;;;;;6209466;23;20357;-79
2023/11/10 06:09:30;;;;;;;0.10;0.10;;;8.60;99.90;;;;;;6182207;23;20024;-79
2023/11/10 06:11:58;;;;;;;0.20;0.13;;;8.60;99.90;;;;;;6182120;23;20020;-79
2023/11/10 06:14:25;;;;;;;0.10;0.10;;;8.60;99.90;;;;;;6182156;23;20031;-78
2023/11/10 06:16:52;;;;;;;0.47;0.20;;;8.50;99.90;;;;;;6181678;23;20398;-79
2023/11/10 06:19:19;;;;;;;0.20;0.20;;;8.50;99.90;;;;;;6181590;23;20347;-80
2023/11/10 06:21:47;;;;;;;0.20;0.20;;;8.40;99.90;;;;;;6207003;23;20028;-79
2023/11/10 06:24:15;;;;;;;0.10;0.10;;;8.40;99.90;;;;;;6207355;23;20023;-80
2023/11/10 06:26:42;;;;;;;0.40;0.20;;;8.30;99.90;;;;;;6230553;23;20020;-79
2023/11/10 06:29:12;;;;;;;0.25;0.20;;;8.30;99.90;;;;;;6182138;23;20363;-80
2023/11/10 06:31:40;;;;;;;0.20;0.20;;;8.20;99.90;;;;;;6205237;23;20018;-79
2023/11/10 06:34:08;;;;;;;0.10;0.10;;;8.20;99.90;;;;;;6204773;23;20106;-78
2023/11/10 06:36:35;;;;;;;0.45;0.10;;;8.10;99.90;;;;;;6181050;23;20024;-78
2023/11/10 06:39:02;;;;;;;0.10;0.10;;;8.10;99.90;;;;;;6183340;23;20020;-79
2023/11/10 06:41:30;;;;;;;0.10;0.10;;;8.00;99.90;;;;;;6205905;23;20098;-79
2023/11/10 06:43:57;;;;;;;0.10;0.10;;;8.00;99.90;;;;;;6205914;23;20500;-79
2023/11/10 06:46:26;;;;;;;0.25;0.20;;;8.00;99.90;;;;;;6206241;23;20039;-79
2023/11/10 06:48:55;;;;;;;0.30;0.20;;;8.00;99.90;;;;;;6184720;23;20035;-79
2023/11/10 06:51:22;;;;;;;0.25;0.17;;;7.90;99.90;;;;;;6229003;23;20024;-79
2023/11/10 06:53:49;;;;;;;0.10;0.10;;;7.90;99.90;;;;;;6201868;23;20130;-79
2023/11/10 06:56:17;;;;;;;0.10;0.10;;;7.90;99.90;;;;;;6201768;23;20024;-79
2023/11/10 06:58:44;;;;;;;0.15;0.15;;;7.80;99.90;;;;;;6203655;23;20027;-79
2023/11/10 07:01:11;;;;;;;0.10;0.10;;;7.80;99.90;;;;;;6202241;23;20032;-79
2023/11/10 07:03:39;;;;;;;0.20;0.20;;;7.80;99.90;;;;;;6176978;23;20712;-79
2023/11/10 07:06:07;;;;;;;0.10;0.10;;;7.80;99.90;;;;;;6201162;23;20035;-79
2023/11/10 07:08:34;;;;;;;0.10;0.10;;;7.80;99.90;;;;;;6178310;23;20028;-79
2023/11/10 07:11:02;;;;;;;0.20;0.20;;;7.70;99.90;;;;;;6226890;23;20028;-78
2023/11/10 07:13:32;;;;;;;0.10;0.10;;;7.70;99.90;;;;;;6193985;23;20024;-78
2023/11/10 07:15:59;;;;;;;0.10;0.10;;;7.70;99.90;;;;;;6172269;23;20380;-79
2023/11/10 07:18:28;;;;;;;0.20;0.10;;;7.70;1.00;;;;;;6227334;23;20048;-79
2023/11/10 07:20:54;;;;;;;0.10;0.10;;;7.60;1.00;;;;;;6174677;23;20063;-79
2023/11/10 07:23:22;;;;;;;0.10;0.10;;;7.60;1.00;;;;;;6177035;23;20103;-79
2023/11/10 07:25:50;;;;;;;0.10;0.10;;;7.60;60.40;;;;;;6203896;23;20398;-80
2023/11/10 07:28:17;;;;;;;0.28;0.28;;;7.60;99.90;;;;;;6204830;23;20332;-79
2023/11/10 07:30:44;;;;;;;0.08;0.08;;;7.50;99.90;;;;;;6204323;23;20506;-79
2023/11/10 07:33:11;;;;;;;0.10;0.10;;;7.50;99.90;;;;;;6205117;23;20027;-79
2023/11/10 07:35:38;;;;;;;0.10;0.10;;;7.60;99.90;;;;;;6201733;23;20346;-79
2023/11/10 07:38:07;;;;;;;0.20;0.20;;;7.60;99.90;;;;;;6178568;23;20017;-79
2023/11/10 07:40:34;;;;;;;0.20;0.20;;;7.60;99.90;;;;;;6224574;23;20537;-79
2023/11/10 07:43:00;;;;;;;0.68;0.17;;;7.60;99.90;;;;;;6203572;23;20070;-79
2023/11/10 07:45:28;;;;;;;0.40;0.20;;;7.60;99.90;;;;;;6179346;23;20024;-80
2023/11/10 07:47:56;;;;;;;0.20;0.20;;;7.70;99.90;;;;;;6204660;23;20095;-79
2023/11/10 07:50:24;;;;;;;0.20;0.20;;;7.70;99.90;;;;;;6178887;23;20326;-79
2023/11/10 07:52:51;;;;;;;1.20;0.20;;;7.80;99.90;;;;;;6230213;23;20020;-79
2023/11/10 07:55:18;;;;;;;0.38;0.20;;;7.90;58.40;;;;;;6179401;23;20035;-79
2023/11/10 07:57:45;;;;;;;0.10;0.10;;;7.90;24.00;;;;;;6180104;23;20020;-79
2023/11/10 08:00:13;;;;;;;0.20;0.20;;;8.00;1.00;;;;;;6179499;23;20629;-79
2023/11/10 08:02:41;;;;;;;0.30;0.30;;;8.00;1.00;;;;;;6202670;23;20028;-79
2023/11/10 08:05:09;;;;;;;0.38;0.25;;;8.20;1.00;;;;;;6177266;23;20102;-79
2023/11/10 08:07:36;;;;;;;0.10;0.10;;;8.20;1.00;;;;;;6179304;23;20035;-79
2023/11/10 08:10:05;;;;;;;0.20;0.20;;;8.30;99.90;;;;;;6227566;23;20035;-79
2023/11/10 08:12:33;;;;;;;0.20;0.20;;;8.40;99.90;;;;;;6187363;23;20294;-79
2023/11/10 08:15:00;;;;;;;0.22;0.22;;;8.50;99.90;;;;;;6187619;23;20055;-79
2023/11/10 08:17:29;;;;;;;0.10;0.10;;;8.60;99.90;;;;;;6208172;23;20032;-80
2023/11/10 08:19:57;;;;;;;0.20;0.20;;;8.70;99.90;;;;;;6203814;23;20024;-80
2023/11/10 08:22:25;;;;;;;0.30;0.15;;;8.80;99.90;;;;;;6204736;23;20582;-80
2023/11/10 08:24:56;;;;;;;0.20;0.20;;;8.90;99.90;;;;;;6203513;23;20513;-80
2023/11/10 08:27:23;;;;;;;0.30;0.30;;;9.10;99.90;;;;;;6203641;23;20059;-80
2023/11/10 08:29:50;;;;;;;0.20;0.20;;;9.20;99.90;;;;;;6203749;23;20086;-80
2023/11/10 08:32:18;;;;;;;0.10;0.10;;;9.20;99.90;;;;;;6228551;23;20020;-81
2023/11/10 08:34:45;;;;;;;0.63;0.40;;;9.30;99.90;;;;;;6177760;23;20035;-80
2023/11/10 08:37:12;;;;;;;0.40;0.40;;;9.40;99.90;;;;;;6179795;23;20020;-80
2023/11/10 08:39:40;;;;;;;0.22;0.20;;;9.50;99.90;;;;;;6176395;23;20420;-80
2023/11/10 08:42:08;;;;;;;0.95;0.30;;;9.50;99.90;;;;;;6229224;23;20066;-80
2023/11/10 08:44:36;;;;;;;0.85;0.30;;;9.50;99.90;;;;;;6228810;23;20020;-80
2023/11/10 08:47:02;;;;;;;0.20;0.20;;;9.50;99.90;;;;;;6179386;23;20382;-80
2023/11/10 08:49:32;;;;;;;0.25;0.20;;;9.60;99.90;;;;;;6201547;23;20020;-80
2023/11/10 08:51:59;;;;;;;0.63;0.30;;;9.60;99.90;;;;;;6228291;23;20020;-80
2023/11/10 08:54:26;;;;;;;0.55;0.30;;;9.80;99.90;;;;;;6202018;23;20024;-80
2023/11/10 08:56:54;;;;;;;0.20;0.20;;;9.80;99.90;;;;;;6227718;23;20113;-79
2023/11/10 08:59:21;;;;;;;0.68;0.30;;;9.90;99.90;;;;;;6201494;23;20090;-79
2023/11/10 09:01:49;;;;;;;1.23;0.75;;;10.00;99.90;;;;;;6227132;23;20044;-79
2023/11/10 09:04:16;;;;;;;0.30;0.22;;;10.10;99.90;;;;;;6230150;23;20107;-79
2023/11/10 09:06:51;;;;;;;0.38;0.20;;;10.30;99.90;;;;;;6203764;23;20040;-78
2023/11/10 09:09:18;;;;;;;0.30;0.30;;;10.30;99.90;;;;;;6177613;23;20432;-79
2023/11/10 09:11:45;;;;;;;0.25;0.25;;;10.40;99.90;;;;;;6203066;23;20350;-80
2023/11/10 09:14:13;;;;;;;0.20;0.20;;;10.50;99.90;;;;;;6228285;23;20082;-81
2023/11/10 09:16:43;;;;;;;1.63;0.60;;;10.60;99.50;;;;;;6228652;23;20455;-82
2023/11/10 09:19:11;;;;;;;0.38;0.38;;;10.50;95.10;;;;;;6230322;23;20451;-80
2023/11/10 09:21:38;;;;;;;1.13;0.30;;;10.60;93.80;;;;;;6227601;23;20020;-81
2023/11/10 09:24:07;;;;;;;0.30;0.30;;;10.60;92.90;;;;;;6178144;23;20533;-82
2023/11/10 09:26:34;;;;;;;0.45;0.25;;;10.70;92.60;;;;;;6202651;23;20066;-81
2023/11/10 09:29:01;;;;;;;1.17;0.40;;;10.70;91.90;;;;;;6179221;23;20024;-82
2023/11/10 09:31:29;;;;;;;0.10;0.10;;;10.60;94.80;;;;;;6203689;23;20433;-82
2023/11/10 09:33:57;;;;;;;0.30;0.30;;;10.60;99.00;;;;;;6203770;23;20544;-83
2023/11/10 09:36:25;;;;;;;0.30;0.30;;;10.60;99.90;;;;;;6202543;23;20266;-82
2023/11/10 09:38:52;;;;;;;0.28;0.20;;;10.60;99.90;;;;;;6179036;23;20073;-81
2023/11/10 09:41:25;;;;;;;0.22;0.20;;;10.60;99.90;;;;;;6226626;23;20320;-82
2023/11/10 09:43:53;;;;;;;0.30;0.30;;;10.60;99.90;;;;;;6230221;23;20459;-83
2023/11/10 09:46:21;;;;;;;0.90;0.30;;;10.60;99.90;;;;;;6202542;23;20023;-83
2023/11/10 09:48:48;;;;;;;0.20;0.20;;;10.60;99.90;;;;;;6178092;23;20051;-83
2023/11/10 09:51:16;;;;;;;0.30;0.20;;;10.70;99.90;;;;;;6201399;23;20032;-82
2023/11/10 09:53:43;;;;;;;0.20;0.20;;;10.70;99.90;;;;;;6177676;23;20356;-82
2023/11/10 09:56:11;;;;;;;0.43;0.20;;;10.80;99.90;;;;;;6176700;23;20909;-82
2023/11/10 09:58:38;;;;;;;0.20;0.20;;;10.80;99.90;;;;;;6203608;23;20047;-82
2023/11/10 10:01:06;;;;;;;0.52;0.20;;;10.80;99.90;;;;;;6178349;23;20028;-82
2023/11/10 10:03:34;;;;;;;0.98;0.32;;;10.80;99.90;;;;;;6202694;23;20565;-82
2023/11/10 10:06:02;;;;;;;0.55;0.35;;;10.80;98.60;;;;;;6203560;23;20108;-83
2023/11/10 10:08:30;;;;;;;0.40;0.30;;;10.80;99.90;;;;;;6179280;23;20112;-81
2023/11/10 10:10:58;;;;;;;0.55;0.30;;;10.90;99.90;;;;;;6201861;23;20032;-82
2023/11/10 10:13:28;;;;;;;0.35;0.20;;;10.80;96.30;;;;;;6202862;23;20024;-81
2023/11/10 10:16:09;;;;;;;0.82;0.20;;;10.90;96.70;;;;;;6177207;23;20345;-82
2023/11/10 10:18:44;;;;;;;0.20;0.20;;;10.90;94.70;;;;;;6177785;23;20024;-82
2023/11/10 10:21:12;;;;;;;0.20;0.20;;;10.90;94.50;;;;;;6226609;23;20024;-81
2023/11/10 10:23:38;;;;;;;0.10;0.10;;;11.00;95.40;;;;;;6178130;23;20020;-82
2023/11/10 10:26:07;;;;;;;0.28;0.20;;;11.00;95.50;;;;;;6178051;23;20435;-81
2023/11/10 10:28:34;;;;;;;0.28;0.10;;;11.10;95.90;;;;;;6225325;23;20016;-81
2023/11/10 10:31:02;;;;;;;0.30;0.22;;;11.10;93.50;;;;;;6197123;23;20491;-82
2023/11/10 10:33:30;;;;;;;0.15;0.15;;;11.20;92.50;;;;;;6169993;23;20029;-81
2023/11/10 10:35:57;;;;;;;0.30;0.30;;;11.20;84.20;;;;;;6141164;23;20025;-81
2023/11/10 10:38:26;;;;;;;0.30;0.10;;;11.20;84.60;;;;;;6196427;23;20035;-81
2023/11/10 10:40:55;;;;;;;0.55;0.30;;;11.10;76.80;;;;;;6168536;23;20027;-81
2023/11/10 10:43:21;;;;;;;0.40;0.28;;;11.10;85.30;;;;;;6170833;23;20028;-81
2023/11/10 10:45:49;;;;;;;0.30;0.30;;;11.00;80.40;;;;;;6173715;23;20029;-82
2023/11/10 10:48:16;;;;;;;0.63;0.40;;;10.90;76.50;;;;;;6197919;23;20021;-82
2023/11/10 10:50:43;;;;;;;1.02;0.50;;;10.80;84.60;;;;;;6195800;23;20056;-84
2023/11/10 10:53:10;;;;;;;0.85;0.50;;;10.80;90.70;;;;;;6172489;23;20028;-82
2023/11/10 10:55:39;;;;;;;1.08;0.60;;;10.70;95.70;;;;;;6148866;23;20032;-83
2023/11/10 10:58:08;;;;;;;0.80;0.60;;;10.80;93.60;;;;;;6173156;23;20024;-83
2023/11/10 11:00:36;;;;;;;0.90;0.50;;;10.80;93.90;;;;;;6196419;23;20056;-82
2023/11/10 11:03:23;;;;;;;1.10;0.60;;;10.90;95.20;;;;;;6196160;23;20356;-81
2023/11/10 11:06:02;;;;;;;0.30;0.30;;;10.90;97.20;;;;;;6170627;23;20123;-82
2023/11/10 11:08:48;;;;;;;2.03;1.10;;;10.90;96.40;;;;;;6199653;23;20025;-83
2023/11/10 11:11:17;;;;;;;4.60;1.90;;;10.90;95.70;;;;;;6172450;23;20034;-82
2023/11/10 11:14:05;;;;;;;4.03;3.28;;;10.80;92.50;;;;;;6173638;23;20040;-83
2023/11/10 11:16:40;;;;;;;5.35;2.70;;;10.70;92.70;;;;;;6198966;23;20494;-82
2023/11/10 11:19:20;;;;;;;4.88;3.60;;;10.70;99.90;;;;;;6173788;23;20430;-83
2023/11/10 11:21:49;;;;;;;5.97;3.15;;;10.60;99.90;;;;;;6171687;23;20035;-82
2023/11/10 11:24:23;;;;;;;4.82;2.72;;;10.60;99.90;;;;;;6196762;23;20024;-81
2023/11/10 11:26:53;;;;;;;5.05;2.90;;;10.60;99.90;;;;;;6173885;23;20087;-83
2023/11/10 11:29:20;;;;;;;3.55;2.17;;;10.70;99.90;;;;;;6198001;23;20024;-82
2023/11/10 11:31:48;;;;;;;3.35;2.10;;;10.60;99.90;;;;;;6205802;23;20047;-81
2023/11/10 11:34:19;;;;;;;3.75;2.00;;;10.60;99.90;;;;;;6179751;23;20092;-88
2023/11/10 11:36:47;;;;;;;4.07;1.67;;;10.50;99.90;;;;;;6177726;23;20020;-85
2023/11/10 11:39:19;;;;;;;2.50;1.20;;;10.40;99.90;;;;;;6175684;23;20562;-83
2023/11/10 11:41:51;;;;;;;2.42;1.10;;;10.40;99.90;;;;;;6204625;23;20020;-81
2023/11/10 11:44:26;;;;;;;3.17;1.33;;;10.40;99.90;;;;;;6176790;23;20078;-82
2023/11/10 11:46:57;;;;;;;2.47;1.35;;;10.30;99.90;;;;;;6178162;23;20089;-83
2023/11/10 11:49:26;;;;;;;2.28;0.85;;;10.20;99.90;;;;;;6202110;23;20028;-80
2023/11/10 11:51:53;;;;;;;3.30;1.13;;;10.20;99.90;;;;;;6200671;23;20406;-81
2023/11/10 11:54:20;;;;;;;1.42;1.10;;;10.00;99.90;;;;;;6201815;23;20280;-80
2023/11/10 11:56:47;;;;;;;1.40;0.70;;;10.00;99.90;;;;;;6200903;23;20027;-82
2023/11/10 11:59:14;;;;;;;2.67;0.95;;;10.10;99.90;;;;;;6176213;23;20047;-83
2023/11/10 12:01:41;;;;;;;1.33;0.80;;;10.20;99.90;;;;;;6201342;23;20297;-80
2023/11/10 12:04:08;;;;;;;2.03;0.85;;;10.20;99.90;;;;;;6226089;23;20055;-82
2023/11/10 12:06:35;;;;;;;2.13;0.60;;;10.20;99.90;;;;;;6199352;23;20106;-82
2023/11/10 12:09:06;;;;;;;1.90;0.90;;;10.10;99.90;;;;;;6227159;23;20347;-81
2023/11/10 12:11:35;;;;;;;1.60;0.93;;;10.10;99.90;;;;;;6204487;23;20047;-81
2023/11/10 12:14:05;;;;;;;1.35;0.73;;;10.00;99.90;;;;;;6204720;23;20036;-81
2023/11/10 12:16:36;;;;;;;1.23;0.80;;;10.00;99.90;;;;;;6228939;23;20361;-81
2023/11/10 12:19:06;;;;;;;2.72;1.05;;;10.00;99.90;;;;;;6203828;23;20040;-81
2023/11/10 12:21:34;;;;;;;2.08;1.20;;;9.90;99.90;;;;;;6202027;23;20722;-81
2023/11/10 12:24:08;;;;;;;3.45;0.98;;;9.80;99.90;;;;;;6204302;23;20024;-83
2023/11/10 12:26:42;;;;;;;1.65;0.93;;;9.80;99.90;;;;;;6228123;23;20024;-84
2023/11/10 12:29:22;;;;;;;1.20;0.65;;;9.80;99.90;;;;;;6229046;23;20615;-82
2023/11/10 12:31:49;;;;;;;1.08;0.63;;;9.80;99.90;;;;;;6202185;23;20498;-82
2023/11/10 12:34:16;;;;;;;2.20;1.00;;;9.90;99.90;;;;;;6177260;23;20040;-83
2023/11/10 12:36:44;;;;;;;1.00;0.75;;;9.90;99.90;;;;;;6227463;23;20099;-80
2023/11/10 12:39:17;;;;;;;1.98;0.80;;;9.90;99.90;;;;;;6175124;23;20078;-80
2023/11/10 12:41:47;;;;;;;1.02;0.70;;;9.80;99.90;;;;;;6228212;23;20093;-81
2023/11/10 12:44:15;;;;;;;1.98;0.90;;;9.80;99.90;;;;;;6228292;23;20020;-81
2023/11/10 12:46:52;;;;;;;2.70;1.23;;;9.80;99.90;;;;;;6224064;23;20063;-82
2023/11/10 12:49:19;;;;;;;2.60;0.90;;;9.60;99.90;;;;;;6228304;23;20070;-81
2023/11/10 12:51:46;;;;;;;1.67;1.15;;;9.60;1.00;;;;;;6202226;23;20024;-81
2023/11/10 12:54:13;;;;;;;2.55;0.98;;;9.50;74.90;;;;;;6227712;23;20387;-81
2023/11/10 12:56:40;;;;;;;1.98;1.20;;;9.50;99.90;;;;;;6228301;23;20038;-81
2023/11/10 12:59:10;;;;;;;1.83;0.80;;;9.40;99.90;;;;;;6180129;23;20585;-81
2023/11/10 13:01:38;;;;;;;5.10;1.70;;;9.30;1.00;;;;;;6228076;23;20527;-81